createdAt,value
2023-05-06T00:00:56.002Z,97622.38
2023-05-06T00:03:23.757Z,97621.91
2023-05-06T00:05:51.626Z,97619.72
2023-05-06T00:08:19.314Z,97625.38
2023-05-06T00:10:47.125Z,97627.94
2023-05-06T00:13:15.037Z,97622.75
2023-05-06T00:15:43.040Z,97621.75
2023-05-06T00:18:10.827Z,97618.03
2023-05-06T00:20:39.223Z,97628.34
2023-05-06T00:23:06.888Z,97626.75
2023-05-06T00:25:34.662Z,97615.28
2023-05-06T00:28:02.368Z,97618.75
2023-05-06T00:30:31.282Z,97614.88
2023-05-06T00:32:59.019Z,97620.81
2023-05-06T00:35:27.120Z,97621.00
2023-05-06T00:37:58.399Z,97623.00
2023-05-06T00:40:26.109Z,97629.28
2023-05-06T00:42:53.768Z,97631.50
2023-05-06T00:45:21.544Z,97619.63
2023-05-06T00:47:49.244Z,97626.13
2023-05-06T00:50:17.039Z,97630.28
2023-05-06T00:52:46.197Z,97618.78
2023-05-06T00:55:14.311Z,97627.09
2023-05-06T00:57:42.046Z,97622.72
2023-05-06T01:00:11.798Z,97624.88
2023-05-06T01:02:46.971Z,97623.50
2023-05-06T01:05:16.772Z,97617.22
2023-05-06T01:08:06.092Z,97630.91
2023-05-06T01:10:38.996Z,97628.72
2023-05-06T01:13:33.287Z,97622.00
2023-05-06T01:16:01.405Z,97625.97
2023-05-06T01:18:31.413Z,97621.44
2023-05-06T01:20:59.363Z,97619.63
2023-05-06T01:23:28.043Z,97617.25
2023-05-06T01:25:55.933Z,97612.53
2023-05-06T01:28:23.619Z,97619.25
2023-05-06T01:31:07.366Z,97603.00
2023-05-06T01:33:46.840Z,97613.09
2023-05-06T01:36:27.415Z,97609.31
2023-05-06T01:39:12.180Z,97610.94
2023-05-06T01:41:41.515Z,97614.88
2023-05-06T01:44:11.546Z,97613.09
2023-05-06T01:46:39.680Z,97615.66
2023-05-06T01:49:10.540Z,97618.66
2023-05-06T01:51:38.271Z,97616.06
2023-05-06T01:54:06.003Z,97621.59
2023-05-06T01:56:33.735Z,97622.38
2023-05-06T01:59:01.463Z,97616.47
2023-05-06T02:01:29.571Z,97613.31
2023-05-06T02:03:57.523Z,97622.41
2023-05-06T02:06:25.628Z,97621.53
2023-05-06T02:08:53.440Z,97617.19
2023-05-06T02:11:24.403Z,97611.66
2023-05-06T02:13:55.051Z,97614.06
2023-05-06T02:16:22.956Z,97616.28
2023-05-06T02:18:50.973Z,97618.41
2023-05-06T02:21:18.662Z,97615.63
2023-05-06T02:23:46.433Z,97613.72
2023-05-06T02:26:14.109Z,97610.56
2023-05-06T02:28:41.857Z,97610.94
2023-05-06T02:31:16.188Z,97610.13
2023-05-06T02:33:45.041Z,97607.75
2023-05-06T02:36:12.760Z,97612.47
2023-05-06T02:38:40.932Z,97609.09
2023-05-06T02:41:09.750Z,97622.41
2023-05-06T02:43:37.626Z,97611.69
2023-05-06T02:46:06.023Z,97610.06
2023-05-06T02:48:33.828Z,97610.47
2023-05-06T02:51:02.090Z,97613.03
2023-05-06T02:53:30.407Z,97611.69
2023-05-06T02:55:58.075Z,97617.78
2023-05-06T02:58:26.313Z,97616.03
2023-05-06T03:00:54.061Z,97606.50
2023-05-06T03:03:22.488Z,97611.06
2023-05-06T03:05:50.242Z,97609.88
2023-05-06T03:08:18.126Z,97615.63
2023-05-06T03:10:46.859Z,97618.78
2023-05-06T03:13:17.887Z,97621.34
2023-05-06T03:15:45.736Z,97637.50
2023-05-06T03:18:13.929Z,97625.25
2023-05-06T03:20:41.720Z,97630.56
2023-05-06T03:23:09.457Z,97629.75
2023-05-06T03:25:37.401Z,97641.75
2023-05-06T03:28:05.455Z,97634.97
2023-05-06T03:30:34.621Z,97644.78
2023-05-06T03:33:06.054Z,97644.78
2023-05-06T03:35:34.718Z,97644.78
2023-05-06T03:38:03.150Z,97638.44
2023-05-06T03:40:42.580Z,97639.28
2023-05-06T03:43:10.672Z,97637.22
2023-05-06T03:45:38.957Z,97651.31
2023-05-06T03:48:07.047Z,97657.69
2023-05-06T03:50:38.448Z,97650.53
2023-05-06T03:53:06.397Z,97650.31
2023-05-06T03:55:36.240Z,97651.91
2023-05-06T03:58:04.443Z,97651.72
2023-05-06T04:00:32.134Z,97654.66
2023-05-06T04:03:00.031Z,97656.81
2023-05-06T04:05:34.900Z,97662.13
2023-05-06T04:08:02.992Z,97656.03
2023-05-06T04:10:31.199Z,97661.53
2023-05-06T04:13:05.094Z,97662.09
2023-05-06T04:15:41.481Z,97664.44
2023-05-06T04:18:19.603Z,97667.44
2023-05-06T04:20:56.605Z,97664.50
2023-05-06T04:23:25.867Z,97669.63
2023-05-06T04:25:53.870Z,97673.16
2023-05-06T04:28:25.099Z,97674.94
2023-05-06T04:30:54.272Z,97668.03
2023-05-06T04:33:26.360Z,97670.53
2023-05-06T04:35:57.464Z,97676.66
2023-05-06T04:38:30.485Z,97668.31
2023-05-06T04:40:58.764Z,97676.47
2023-05-06T04:43:27.787Z,97679.78
2023-05-06T04:46:03.333Z,97685.00
2023-05-06T04:48:33.969Z,97693.06
2023-05-06T04:51:05.381Z,97694.66
2023-05-06T04:53:35.799Z,97692.84
2023-05-06T04:56:03.793Z,97685.88
2023-05-06T04:58:32.770Z,97687.66
2023-05-06T05:01:04.465Z,97687.19
2023-05-06T05:03:33.017Z,97686.00
2023-05-06T05:06:02.757Z,97695.16
2023-05-06T05:08:31.720Z,97686.00
2023-05-06T05:10:59.492Z,97691.75
2023-05-06T05:13:29.753Z,97699.50
2023-05-06T05:15:59.747Z,97689.78
2023-05-06T05:18:30.702Z,97698.69
2023-05-06T05:21:04.513Z,97698.09
2023-05-06T05:23:33.866Z,97707.59
2023-05-06T05:26:02.212Z,97710.53
2023-05-06T05:28:30.072Z,97701.78
2023-05-06T05:31:06.890Z,97712.88
2023-05-06T05:33:37.077Z,97709.88
2023-05-06T05:36:08.834Z,97707.97
2023-05-06T05:38:37.954Z,97709.22
2023-05-06T05:41:05.850Z,97707.47
2023-05-06T05:43:33.617Z,97714.84
2023-05-06T05:46:02.756Z,97716.53
2023-05-06T05:48:33.264Z,97716.47
2023-05-06T05:51:03.337Z,97714.72
2023-05-06T05:53:31.394Z,97712.66
2023-05-06T05:55:59.438Z,97715.50
2023-05-06T05:58:27.894Z,97719.00
2023-05-06T06:00:58.706Z,97715.69
2023-05-06T06:03:26.874Z,97715.69
2023-05-06T06:05:55.461Z,97721.34
2023-05-06T06:08:25.349Z,97715.13
2023-05-06T06:10:53.744Z,97711.28
2023-05-06T06:13:28.388Z,97718.53
2023-05-06T06:15:56.907Z,97712.59
2023-05-06T06:18:24.731Z,97719.50
2023-05-06T06:20:53.644Z,97719.75
2023-05-06T06:23:22.108Z,97716.91
2023-05-06T06:25:50.362Z,97729.16
2023-05-06T06:28:18.190Z,97727.16
2023-05-06T06:30:46.546Z,97716.81
2023-05-06T06:33:14.490Z,97719.50
2023-05-06T06:35:42.331Z,97716.97
2023-05-06T06:38:12.292Z,97722.16
2023-05-06T06:40:40.091Z,97721.88
2023-05-06T06:43:08.251Z,97723.47
2023-05-06T06:45:56.344Z,97724.84
2023-05-06T06:48:24.212Z,97725.63
2023-05-06T06:50:53.150Z,97729.94
2023-05-06T06:53:21.292Z,97729.88
2023-05-06T06:55:50.218Z,97729.53
2023-05-06T06:58:17.917Z,97733.06
2023-05-06T07:00:45.778Z,97728.16
2023-05-06T07:03:19.509Z,97728.97
2023-05-06T07:05:48.048Z,97729.09
2023-05-06T07:08:17.045Z,97724.50
2023-05-06T07:10:44.977Z,97719.75
2023-05-06T07:13:12.731Z,97722.25
2023-05-06T07:15:42.097Z,97722.16
2023-05-06T07:18:11.039Z,97726.28
2023-05-06T07:20:38.832Z,97733.94
2023-05-06T07:23:07.032Z,97731.66
2023-05-06T07:25:35.403Z,97731.38
2023-05-06T07:28:04.166Z,97732.13
2023-05-06T07:30:31.942Z,97725.19
2023-05-06T07:33:03.392Z,97735.16
2023-05-06T07:35:31.480Z,97740.00
2023-05-06T07:37:59.255Z,97734.25
2023-05-06T07:40:27.077Z,97731.28
2023-05-06T07:42:55.921Z,97740.50
2023-05-06T07:45:25.300Z,97731.34
2023-05-06T07:47:53.169Z,97731.09
2023-05-06T07:50:21.029Z,97731.94
2023-05-06T07:52:48.718Z,97739.03
2023-05-06T07:55:16.573Z,97739.75
2023-05-06T07:57:44.989Z,97739.59
2023-05-06T08:00:14.540Z,97742.94
2023-05-06T08:02:46.700Z,97735.75
2023-05-06T08:05:14.730Z,97729.31
2023-05-06T08:07:43.519Z,97733.06
2023-05-06T08:10:11.418Z,97735.22
2023-05-06T08:12:39.210Z,97724.59
2023-05-06T08:15:07.993Z,97728.44
2023-05-06T08:17:35.919Z,97720.25
2023-05-06T08:20:03.939Z,97726.22
2023-05-06T08:22:32.069Z,97719.53
2023-05-06T08:25:01.076Z,97725.75
2023-05-06T08:27:28.808Z,97708.28
2023-05-06T08:29:56.738Z,97718.00
2023-05-06T08:32:24.509Z,97725.28
2023-05-06T08:34:53.180Z,97727.06
2023-05-06T08:37:21.411Z,97719.75
2023-05-06T08:39:49.107Z,97714.19
2023-05-06T08:42:16.843Z,97711.13
2023-05-06T08:44:44.644Z,97721.56
2023-05-06T08:47:12.380Z,97710.94
2023-05-06T08:49:40.158Z,97699.72
2023-05-06T08:52:07.978Z,97714.59
2023-05-06T08:54:36.564Z,97720.22
2023-05-06T08:57:06.253Z,97711.75
2023-05-06T08:59:34.590Z,97707.03
2023-05-06T09:02:03.161Z,97699.50
2023-05-06T09:04:31.164Z,97711.16
2023-05-06T09:06:59.059Z,97697.34
2023-05-06T09:09:26.881Z,97698.19
2023-05-06T09:11:57.334Z,97700.44
2023-05-06T09:14:25.292Z,97696.31
2023-05-06T09:16:53.543Z,97683.59
2023-05-06T09:19:21.865Z,97687.41
2023-05-06T09:21:50.666Z,97681.16
2023-05-06T09:24:18.584Z,97679.00
2023-05-06T09:26:46.619Z,97683.47
2023-05-06T09:29:14.388Z,97671.22
2023-05-06T09:31:46.107Z,97668.41
2023-05-06T09:34:14.554Z,97672.78
2023-05-06T09:36:42.302Z,97668.81
2023-05-06T09:39:10.391Z,97655.78
2023-05-06T09:41:38.172Z,97665.50
2023-05-06T09:44:06.202Z,97659.63
2023-05-06T09:46:34.104Z,97651.94
2023-05-06T09:49:02.021Z,97644.06
2023-05-06T09:51:29.777Z,97636.63
2023-05-06T09:53:57.912Z,97637.31
2023-05-06T09:56:25.772Z,97645.09
2023-05-06T09:58:53.599Z,97641.91
2023-05-06T10:01:35.493Z,97645.69
2023-05-06T10:04:06.603Z,97636.25
2023-05-06T10:06:36.679Z,97629.28
2023-05-06T10:09:04.380Z,97640.41
2023-05-06T10:11:32.239Z,97627.34
2023-05-06T10:14:00.480Z,97629.13
2023-05-06T10:16:28.681Z,97626.91
2023-05-06T10:18:56.666Z,97628.72
2023-05-06T10:21:28.211Z,97629.44
2023-05-06T10:24:02.317Z,97621.28
2023-05-06T10:26:31.313Z,97625.34
2023-05-06T10:28:59.025Z,97621.66
2023-05-06T10:31:26.871Z,97619.88
2023-05-06T10:33:54.811Z,97623.00
2023-05-06T10:36:24.409Z,97619.47
2023-05-06T10:38:57.065Z,97613.03
2023-05-06T10:41:26.126Z,97618.59
2023-05-06T10:43:57.293Z,97619.16
2023-05-06T10:46:28.604Z,97625.16
2023-05-06T10:49:11.690Z,97626.66
2023-05-06T10:51:46.994Z,97616.75
2023-05-06T10:54:20.902Z,97630.47
2023-05-06T10:56:48.534Z,97625.63
2023-05-06T10:59:26.508Z,97621.97
2023-05-06T11:02:08.457Z,97621.38
2023-05-06T11:04:37.571Z,97619.97
2023-05-06T11:07:11.996Z,97616.53
2023-05-06T11:09:55.885Z,97619.00
2023-05-06T11:12:46.104Z,97613.22
2023-05-06T11:15:27.595Z,97608.44
2023-05-06T11:17:55.943Z,97610.63
2023-05-06T11:20:26.771Z,97599.38
2023-05-06T11:22:54.687Z,97613.41
2023-05-06T11:25:41.600Z,97608.50
2023-05-06T11:28:13.483Z,97605.41
2023-05-06T11:30:42.770Z,97602.31
2023-05-06T11:33:16.959Z,97602.09
2023-05-06T11:35:44.953Z,97601.91
2023-05-06T11:38:12.766Z,97602.50
2023-05-06T11:40:43.673Z,97601.72
2023-05-06T11:43:12.680Z,97598.81
2023-05-06T11:45:43.056Z,97607.84
2023-05-06T11:48:14.055Z,97603.03
2023-05-06T11:50:49.067Z,97600.16
2023-05-06T11:53:19.076Z,97603.03
2023-05-06T11:55:47.303Z,97611.13
2023-05-06T11:58:35.281Z,97607.97
2023-05-06T12:01:03.913Z,97609.25
2023-05-06T12:03:32.442Z,97610.88
2023-05-06T12:06:01.082Z,97606.16
2023-05-06T12:08:30.519Z,97603.28
2023-05-06T12:11:05.125Z,97607.88
2023-05-06T12:13:34.948Z,97606.63
2023-05-06T12:16:02.724Z,97600.41
2023-05-06T12:18:30.562Z,97607.72
2023-05-06T12:21:01.125Z,97605.38
2023-05-06T12:23:28.966Z,97592.81
2023-05-06T12:26:02.440Z,97596.78
2023-05-06T12:28:30.915Z,97596.50
2023-05-06T12:30:58.619Z,97583.41
2023-05-06T12:33:26.453Z,97586.03
2023-05-06T12:35:58.350Z,97575.84
2023-05-06T12:38:26.159Z,97579.63
2023-05-06T12:40:54.284Z,97579.72
2023-05-06T12:43:29.340Z,97575.22
2023-05-06T12:46:09.536Z,97562.16
2023-05-06T12:48:37.308Z,97567.09
2023-05-06T12:51:18.666Z,97572.88
2023-05-06T12:53:46.579Z,97568.69
2023-05-06T12:56:14.306Z,97572.19
2023-05-06T12:58:42.149Z,97567.56
2023-05-06T13:01:09.926Z,97567.47
2023-05-06T13:03:40.835Z,97570.41
2023-05-06T13:06:08.793Z,97570.25
2023-05-06T13:08:36.525Z,97570.41
2023-05-06T13:11:04.369Z,97559.84
2023-05-06T13:13:32.200Z,97577.59
2023-05-06T13:15:59.942Z,97565.69
2023-05-06T13:18:27.698Z,97560.91
2023-05-06T13:20:55.784Z,97563.50
2023-05-06T13:23:23.665Z,97560.66
2023-05-06T13:26:03.641Z,97565.06
2023-05-06T13:28:33.708Z,97559.28
2023-05-06T13:31:01.422Z,97560.91
2023-05-06T13:33:29.258Z,97556.22
2023-05-06T13:35:57.032Z,97557.47
2023-05-06T13:38:24.816Z,97554.88
2023-05-06T13:40:53.012Z,97555.78
2023-05-06T13:43:21.033Z,97556.56
2023-05-06T13:45:48.871Z,97555.84
2023-05-06T13:48:17.371Z,97556.91
2023-05-06T13:50:48.194Z,97550.53
2023-05-06T13:53:15.954Z,97559.06
2023-05-06T13:55:43.726Z,97551.06
2023-05-06T13:58:11.584Z,97547.91
2023-05-06T14:00:39.270Z,97549.50
2023-05-06T14:03:07.786Z,97541.69
2023-05-06T14:05:35.541Z,97535.94
2023-05-06T14:08:03.412Z,97539.81
2023-05-06T14:10:31.240Z,97533.03
2023-05-06T14:12:59.118Z,97538.50
2023-05-06T14:15:26.856Z,97537.72
2023-05-06T14:17:54.722Z,97535.81
2023-05-06T14:20:22.556Z,97542.91
2023-05-06T14:22:50.285Z,97532.06
2023-05-06T14:25:17.980Z,97533.94
2023-05-06T14:27:45.768Z,97534.94
2023-05-06T14:30:13.807Z,97527.56
2023-05-06T14:32:41.571Z,97531.13
2023-05-06T14:35:10.769Z,97531.84
2023-05-06T14:37:38.720Z,97523.84
2023-05-06T14:40:07.795Z,97533.69
2023-05-06T14:42:35.973Z,97522.03
2023-05-06T14:45:04.149Z,97527.38
2023-05-06T14:47:31.963Z,97538.56
2023-05-06T14:49:59.797Z,97529.19
2023-05-06T14:52:27.615Z,97528.69
2023-05-06T14:54:55.385Z,97530.44
2023-05-06T14:57:23.930Z,97530.06
2023-05-06T14:59:52.174Z,97529.44
2023-05-06T15:02:19.914Z,97530.66
2023-05-06T15:04:47.737Z,97529.00
2023-05-06T15:07:15.557Z,97526.38
2023-05-06T15:09:44.193Z,97526.63
2023-05-06T15:12:11.963Z,97531.91
2023-05-06T15:14:39.884Z,97525.41
2023-05-06T15:17:07.877Z,97524.38
2023-05-06T15:19:35.835Z,97520.13
2023-05-06T15:22:03.589Z,97523.03
2023-05-06T15:24:31.348Z,97517.09
2023-05-06T15:26:59.287Z,97524.94
2023-05-06T15:29:27.066Z,97533.81
2023-05-06T15:31:54.898Z,97519.75
2023-05-06T15:34:22.779Z,97513.88
2023-05-06T15:36:54.605Z,97529.34
2023-05-06T15:39:22.357Z,97523.59
2023-05-06T15:41:50.745Z,97531.19
2023-05-06T15:44:20.796Z,97523.13
2023-05-06T15:46:48.963Z,97532.22
2023-05-06T15:51:47.355Z,97530.38
2023-05-06T15:54:18.257Z,97524.06
2023-05-06T15:56:46.246Z,97524.00
2023-05-06T15:59:14.083Z,97512.53
2023-05-06T16:02:24.737Z,97517.00
2023-05-06T16:04:30.088Z,97513.22
2023-05-06T16:06:58.132Z,97512.91
2023-05-06T16:09:25.913Z,97524.13
2023-05-06T16:11:54.833Z,97523.72
2023-05-06T16:14:23.097Z,97518.22
2023-05-06T16:16:50.810Z,97523.19
2023-05-06T16:19:18.613Z,97524.56
2023-05-06T16:21:46.415Z,97515.38
2023-05-06T16:24:14.318Z,97514.03
2023-05-06T16:26:42.095Z,97520.34
2023-05-06T16:29:10.215Z,97517.16
2023-05-06T16:31:38.159Z,97518.84
2023-05-06T16:34:06.321Z,97521.28
2023-05-06T16:36:34.171Z,97530.94
2023-05-06T16:39:01.928Z,97521.47
2023-05-06T16:41:29.999Z,97517.53
2023-05-06T16:43:57.826Z,97520.38
2023-05-06T16:46:26.393Z,97521.44
2023-05-06T16:48:54.209Z,97536.00
2023-05-06T16:51:22.182Z,97515.38
2023-05-06T16:53:51.092Z,97533.28
2023-05-06T16:56:18.840Z,97529.56
2023-05-06T16:58:46.576Z,97530.38
2023-05-06T17:01:14.425Z,97531.84
2023-05-06T17:03:42.450Z,97531.31
2023-05-06T17:06:10.955Z,97538.38
2023-05-06T17:08:38.732Z,97542.25
2023-05-06T17:11:06.825Z,97546.00
2023-05-06T17:13:34.783Z,97540.94
2023-05-06T17:16:02.536Z,97538.63
2023-05-06T17:18:30.238Z,97544.38
2023-05-06T17:20:58.067Z,97542.53
2023-05-06T17:23:25.883Z,97549.69
2023-05-06T17:25:55.755Z,97552.53
2023-05-06T17:28:23.482Z,97548.63
2023-05-06T17:30:51.315Z,97548.88
2023-05-06T17:33:19.079Z,97559.72
2023-05-06T17:35:46.826Z,97560.22
2023-05-06T17:38:16.794Z,97555.22
2023-05-06T17:40:44.517Z,97556.53
2023-05-06T17:43:12.331Z,97561.50
2023-05-06T17:45:40.790Z,97571.97
2023-05-06T17:48:08.616Z,97573.53
2023-05-06T17:50:36.450Z,97576.66
2023-05-06T17:53:04.137Z,97573.25
2023-05-06T17:55:31.922Z,97574.31
2023-05-06T17:57:59.736Z,97575.31
2023-05-06T18:00:27.511Z,97572.19
2023-05-06T18:02:55.228Z,97593.03
2023-05-06T18:05:24.703Z,97585.47
2023-05-06T18:07:52.490Z,97581.84
2023-05-06T18:10:20.255Z,97596.41
2023-05-06T18:12:48.153Z,97589.13
2023-05-06T18:15:15.926Z,97596.69
2023-05-06T18:17:43.700Z,97592.19
2023-05-06T18:20:12.132Z,97594.50
2023-05-06T18:22:51.768Z,97603.34
2023-05-06T18:25:19.562Z,97601.81
2023-05-06T18:27:48.220Z,97601.19
2023-05-06T18:30:16.510Z,97605.09
2023-05-06T18:32:44.262Z,97611.53
2023-05-06T18:35:12.276Z,97609.78
2023-05-06T18:37:40.317Z,97615.50
2023-05-06T18:40:11.958Z,97613.88
2023-05-06T18:42:39.780Z,97621.66
2023-05-06T18:45:08.090Z,97618.88
2023-05-06T18:47:37.611Z,97622.00
2023-05-06T18:50:07.275Z,97623.19
2023-05-06T18:52:37.505Z,97623.50
2023-05-06T18:55:05.865Z,97621.13
2023-05-06T18:57:33.715Z,97628.66
2023-05-06T19:00:01.445Z,97635.81
2023-05-06T19:02:29.201Z,97642.69
2023-05-06T19:04:58.222Z,97639.94
2023-05-06T19:07:26.059Z,97642.00
2023-05-06T19:09:53.765Z,97644.34
2023-05-06T19:12:22.807Z,97640.72
2023-05-06T19:14:50.560Z,97646.41
2023-05-06T19:17:18.284Z,97653.47
2023-05-06T19:19:47.026Z,97644.31
2023-05-06T19:22:16.005Z,97646.44
2023-05-06T19:24:44.224Z,97643.00
2023-05-06T19:27:11.930Z,97652.25
2023-05-06T19:29:39.790Z,97649.63
2023-05-06T19:32:07.572Z,97653.50
2023-05-06T19:34:35.320Z,97647.22
2023-05-06T19:37:03.051Z,97642.56
2023-05-06T19:39:31.051Z,97641.00
2023-05-06T19:41:58.846Z,97643.38
2023-05-06T19:44:26.561Z,97647.63
2023-05-06T19:46:54.613Z,97649.44
2023-05-06T19:49:22.360Z,97643.16
2023-05-06T19:51:50.114Z,97653.00
2023-05-06T19:54:19.449Z,97648.56
2023-05-06T19:56:47.185Z,97661.94
2023-05-06T19:59:14.874Z,97651.66
2023-05-06T20:01:42.753Z,97651.97
2023-05-06T20:04:10.644Z,97652.75
2023-05-06T20:06:38.478Z,97649.63
2023-05-06T20:09:06.175Z,97652.50
2023-05-06T20:11:33.929Z,97654.72
2023-05-06T20:14:01.622Z,97650.78
2023-05-06T20:16:29.399Z,97650.78
2023-05-06T20:18:57.191Z,97662.13
2023-05-06T20:21:24.947Z,97654.88
2023-05-06T20:23:52.658Z,97658.53
2023-05-06T20:26:20.995Z,97664.59
2023-05-06T20:28:49.643Z,97664.22
2023-05-06T20:31:17.457Z,97667.19
2023-05-06T20:33:45.319Z,97664.03
2023-05-06T20:36:13.080Z,97666.56
2023-05-06T20:38:40.739Z,97670.31
2023-05-06T20:41:08.506Z,97672.03
2023-05-06T20:43:36.411Z,97674.22
2023-05-06T20:46:04.249Z,97671.69
2023-05-06T20:48:32.095Z,97655.38
2023-05-06T20:50:59.896Z,97669.53
2023-05-06T20:53:27.641Z,97660.13
2023-05-06T20:55:55.432Z,97673.75
2023-05-06T20:58:23.151Z,97668.19
2023-05-06T21:00:51.026Z,97682.75
2023-05-06T21:03:18.851Z,97673.53
2023-05-06T21:05:46.601Z,97664.91
2023-05-06T21:08:14.301Z,97661.41
2023-05-06T21:10:42.091Z,97670.28
2023-05-06T21:13:09.769Z,97665.19
2023-05-06T21:15:38.202Z,97668.97
2023-05-06T21:18:06.086Z,97664.22
2023-05-06T21:20:33.900Z,97660.19
2023-05-06T21:23:03.468Z,97655.31
2023-05-06T21:25:31.185Z,97666.53
2023-05-06T21:28:03.219Z,97667.78
2023-05-06T21:30:31.139Z,97664.59
2023-05-06T21:32:58.886Z,97664.91
2023-05-06T21:35:26.805Z,97663.19
2023-05-06T21:37:54.506Z,97667.41
2023-05-06T21:40:22.453Z,97665.34
2023-05-06T21:42:50.971Z,97658.16
2023-05-06T21:45:19.071Z,97665.91
2023-05-06T21:47:46.942Z,97669.75
2023-05-06T21:50:14.826Z,97676.59
2023-05-06T21:52:42.709Z,97670.53
2023-05-06T21:55:11.421Z,97669.66
2023-05-06T21:57:39.583Z,97669.78
2023-05-06T22:00:11.955Z,97670.88
2023-05-06T22:02:40.313Z,97674.47
2023-05-06T22:05:08.779Z,97677.41
2023-05-06T22:07:36.851Z,97685.38
2023-05-06T22:10:05.095Z,97675.81
2023-05-06T22:12:32.879Z,97682.25
2023-05-06T22:15:00.654Z,97679.88
2023-05-06T22:17:29.057Z,97677.06
2023-05-06T22:19:56.761Z,97679.75
2023-05-06T22:22:25.238Z,97674.25
2023-05-06T22:24:52.958Z,97682.69
2023-05-06T22:27:20.825Z,97679.97
2023-05-06T22:29:48.491Z,97673.75
2023-05-06T22:32:16.315Z,97674.78
2023-05-06T22:34:43.992Z,97672.25
2023-05-06T22:37:11.832Z,97669.09
2023-05-06T22:39:39.507Z,97665.97
2023-05-06T22:42:08.108Z,97663.09
2023-05-06T22:44:35.803Z,97661.97
2023-05-06T22:47:03.568Z,97665.41
2023-05-06T22:49:31.308Z,97663.88
2023-05-06T22:51:59.053Z,97648.88
2023-05-06T22:54:26.758Z,97654.06
2023-05-06T22:56:54.541Z,97653.56
2023-05-06T22:59:22.217Z,97656.81
2023-05-06T23:01:49.986Z,97655.25
2023-05-06T23:04:17.851Z,97650.09
2023-05-06T23:06:46.160Z,97651.94
2023-05-06T23:09:13.856Z,97655.59
2023-05-06T23:11:41.812Z,97657.84
2023-05-06T23:14:09.575Z,97660.41
2023-05-06T23:16:37.411Z,97649.72
2023-05-06T23:19:05.143Z,97652.19
2023-05-06T23:21:32.884Z,97647.72
2023-05-06T23:24:00.857Z,97645.50
2023-05-06T23:26:28.632Z,97646.91
2023-05-06T23:28:56.305Z,97649.25
2023-05-06T23:31:24.169Z,97654.41
2023-05-06T23:33:51.976Z,97663.03
2023-05-06T23:36:19.854Z,97657.84
2023-05-06T23:38:47.581Z,97656.13
2023-05-06T23:41:15.304Z,97653.19
2023-05-06T23:43:42.966Z,97663.22
2023-05-06T23:46:11.264Z,97664.09
2023-05-06T23:48:38.980Z,97655.06
2023-05-06T23:51:06.699Z,97649.63
2023-05-06T23:53:36.085Z,97652.75
2023-05-06T23:56:04.107Z,97660.22
2023-05-06T23:58:31.871Z,97654.41
